sensor_id;sensor_type;location;lat;lon;timestamp;P1;durP1;ratioP1;P2;durP2;ratioP2
27899;SDS011;15243;50.726;7.080;2023-07-24T00:01:16;5.07;;;3.17;;
27899;SDS011;15243;50.726;7.080;2023-07-24T00:03:45;4.43;;;3.03;;
27899;SDS011;15243;50.726;7.080;2023-07-24T00:06:12;4.95;;;3.25;;
27899;SDS011;15243;50.726;7.080;2023-07-24T00:08:39;3.63;;;2.90;;
27899;SDS011;15243;50.726;7.080;2023-07-24T00:11:07;5.05;;;3.08;;
27899;SDS011;15243;50.726;7.080;2023-07-24T00:13:34;3.67;;;3.13;;
27899;SDS011;15243;50.726;7.080;2023-07-24T00:16:05;4.75;;;3.38;;
27899;SDS011;15243;50.726;7.080;2023-07-24T00:18:35;4.70;;;3.25;;
27899;SDS011;15243;50.726;7.080;2023-07-24T00:21:03;4.35;;;3.05;;
27899;SDS011;15243;50.726;7.080;2023-07-24T00:23:29;7.00;;;3.10;;
27899;SDS011;15243;50.726;7.080;2023-07-24T00:25:57;4.90;;;3.17;;
27899;SDS011;15243;50.726;7.080;2023-07-24T00:28:26;4.20;;;2.90;;
27899;SDS011;15243;50.726;7.080;2023-07-24T00:30:53;5.50;;;3.20;;
27899;SDS011;15243;50.726;7.080;2023-07-24T00:33:22;8.30;;;3.60;;
27899;SDS011;15243;50.726;7.080;2023-07-24T00:35:49;4.13;;;2.85;;
27899;SDS011;15243;50.726;7.080;2023-07-24T00:38:16;5.05;;;3.55;;
27899;SDS011;15243;50.726;7.080;2023-07-24T00:40:43;5.03;;;3.42;;
27899;SDS011;15243;50.726;7.080;2023-07-24T00:43:10;4.88;;;3.40;;
27899;SDS011;15243;50.726;7.080;2023-07-24T00:45:37;5.20;;;3.17;;
27899;SDS011;15243;50.726;7.080;2023-07-24T00:48:04;8.23;;;3.28;;
27899;SDS011;15243;50.726;7.080;2023-07-24T00:50:31;7.95;;;3.22;;
27899;SDS011;15243;50.726;7.080;2023-07-24T00:52:58;5.30;;;3.47;;
27899;SDS011;15243;50.726;7.080;2023-07-24T00:55:26;6.45;;;3.35;;
27899;SDS011;15243;50.726;7.080;2023-07-24T00:57:53;7.13;;;3.05;;
27899;SDS011;15243;50.726;7.080;2023-07-24T01:00:21;4.07;;;3.40;;
27899;SDS011;15243;50.726;7.080;2023-07-24T01:02:48;6.78;;;2.97;;
27899;SDS011;15243;50.726;7.080;2023-07-24T01:05:16;4.72;;;3.20;;
27899;SDS011;15243;50.726;7.080;2023-07-24T01:07:46;5.15;;;3.60;;
27899;SDS011;15243;50.726;7.080;2023-07-24T01:10:13;8.48;;;3.53;;
27899;SDS011;15243;50.726;7.080;2023-07-24T01:15:36;4.63;;;3.50;;
27899;SDS011;15243;50.726;7.080;2023-07-24T01:18:24;5.63;;;3.47;;
27899;SDS011;15243;50.726;7.080;2023-07-24T01:20:55;5.10;;;3.10;;
27899;SDS011;15243;50.726;7.080;2023-07-24T01:26:08;5.28;;;3.33;;
27899;SDS011;15243;50.726;7.080;2023-07-24T01:28:37;6.72;;;3.55;;
27899;SDS011;15243;50.726;7.080;2023-07-24T01:31:06;4.93;;;3.30;;
27899;SDS011;15243;50.726;7.080;2023-07-24T01:33:33;5.32;;;3.47;;
27899;SDS011;15243;50.726;7.080;2023-07-24T01:36:02;5.07;;;3.45;;
27899;SDS011;15243;50.726;7.080;2023-07-24T01:38:34;5.75;;;3.58;;
27899;SDS011;15243;50.726;7.080;2023-07-24T01:41:02;6.43;;;3.35;;
27899;SDS011;15243;50.726;7.080;2023-07-24T01:43:30;4.95;;;3.72;;
27899;SDS011;15243;50.726;7.080;2023-07-24T01:45:58;8.95;;;3.33;;
27899;SDS011;15243;50.726;7.080;2023-07-24T01:48:25;5.43;;;3.30;;
27899;SDS011;15243;50.726;7.080;2023-07-24T01:50:52;6.10;;;3.63;;
27899;SDS011;15243;50.726;7.080;2023-07-24T01:53:19;5.18;;;3.25;;
27899;SDS011;15243;50.726;7.080;2023-07-24T01:55:46;5.45;;;3.08;;
27899;SDS011;15243;50.726;7.080;2023-07-24T01:58:13;6.22;;;3.55;;
27899;SDS011;15243;50.726;7.080;2023-07-24T02:00:40;4.85;;;3.22;;
27899;SDS011;15243;50.726;7.080;2023-07-24T02:03:07;5.18;;;3.30;;
27899;SDS011;15243;50.726;7.080;2023-07-24T02:05:34;7.50;;;3.40;;
27899;SDS011;15243;50.726;7.080;2023-07-24T02:08:02;3.72;;;3.20;;
27899;SDS011;15243;50.726;7.080;2023-07-24T02:10:29;5.05;;;3.17;;
27899;SDS011;15243;50.726;7.080;2023-07-24T02:12:56;7.05;;;3.28;;
27899;SDS011;15243;50.726;7.080;2023-07-24T02:15:23;3.80;;;2.97;;
27899;SDS011;15243;50.726;7.080;2023-07-24T02:17:50;4.45;;;3.20;;
27899;SDS011;15243;50.726;7.080;2023-07-24T02:20:17;8.07;;;3.78;;
27899;SDS011;15243;50.726;7.080;2023-07-24T02:22:43;4.47;;;3.55;;
27899;SDS011;15243;50.726;7.080;2023-07-24T02:25:10;7.50;;;3.10;;
27899;SDS011;15243;50.726;7.080;2023-07-24T02:27:38;7.15;;;3.38;;
27899;SDS011;15243;50.726;7.080;2023-07-24T02:30:05;7.95;;;3.72;;
27899;SDS011;15243;50.726;7.080;2023-07-24T02:32:32;4.97;;;3.55;;
27899;SDS011;15243;50.726;7.080;2023-07-24T02:34:59;7.05;;;3.70;;
27899;SDS011;15243;50.726;7.080;2023-07-24T02:37:27;5.60;;;3.60;;
27899;SDS011;15243;50.726;7.080;2023-07-24T02:39:54;5.53;;;3.85;;
27899;SDS011;15243;50.726;7.080;2023-07-24T02:42:21;5.03;;;3.30;;
27899;SDS011;15243;50.726;7.080;2023-07-24T02:44:48;7.35;;;3.83;;
27899;SDS011;15243;50.726;7.080;2023-07-24T02:47:15;6.68;;;4.00;;
27899;SDS011;15243;50.726;7.080;2023-07-24T02:49:42;6.38;;;3.92;;
27899;SDS011;15243;50.726;7.080;2023-07-24T02:52:09;5.65;;;4.10;;
27899;SDS011;15243;50.726;7.080;2023-07-24T02:54:36;4.63;;;3.63;;
27899;SDS011;15243;50.726;7.080;2023-07-24T02:57:03;5.75;;;3.70;;
27899;SDS011;15243;50.726;7.080;2023-07-24T02:59:30;7.45;;;4.38;;
27899;SDS011;15243;50.726;7.080;2023-07-24T03:01:58;8.40;;;4.03;;
27899;SDS011;15243;50.726;7.080;2023-07-24T03:04:25;6.95;;;4.20;;
27899;SDS011;15243;50.726;7.080;2023-07-24T03:06:52;6.85;;;4.32;;
27899;SDS011;15243;50.726;7.080;2023-07-24T03:09:19;7.25;;;4.47;;
27899;SDS011;15243;50.726;7.080;2023-07-24T03:11:46;7.35;;;4.40;;
27899;SDS011;15243;50.726;7.080;2023-07-24T03:14:13;8.15;;;4.13;;
27899;SDS011;15243;50.726;7.080;2023-07-24T03:16:40;7.15;;;4.22;;
27899;SDS011;15243;50.726;7.080;2023-07-24T03:19:07;6.88;;;4.20;;
27899;SDS011;15243;50.726;7.080;2023-07-24T03:21:34;8.57;;;4.10;;
27899;SDS011;15243;50.726;7.080;2023-07-24T03:24:01;8.18;;;4.45;;
27899;SDS011;15243;50.726;7.080;2023-07-24T03:26:28;8.73;;;4.70;;
27899;SDS011;15243;50.726;7.080;2023-07-24T03:28:56;10.02;;;4.70;;
27899;SDS011;15243;50.726;7.080;2023-07-24T03:31:23;7.55;;;4.60;;
27899;SDS011;15243;50.726;7.080;2023-07-24T03:33:50;6.80;;;3.85;;
27899;SDS011;15243;50.726;7.080;2023-07-24T03:36:17;7.65;;;4.25;;
27899;SDS011;15243;50.726;7.080;2023-07-24T03:38:44;8.00;;;4.20;;
27899;SDS011;15243;50.726;7.080;2023-07-24T03:41:11;9.20;;;5.05;;
27899;SDS011;15243;50.726;7.080;2023-07-24T03:43:38;9.07;;;5.35;;
27899;SDS011;15243;50.726;7.080;2023-07-24T03:46:05;7.43;;;4.75;;
27899;SDS011;15243;50.726;7.080;2023-07-24T03:48:32;7.53;;;4.55;;
27899;SDS011;15243;50.726;7.080;2023-07-24T03:50:59;10.00;;;4.95;;
27899;SDS011;15243;50.726;7.080;2023-07-24T03:53:26;6.30;;;4.45;;
27899;SDS011;15243;50.726;7.080;2023-07-24T03:55:54;9.13;;;4.10;;
27899;SDS011;15243;50.726;7.080;2023-07-24T03:58:21;9.70;;;4.65;;
27899;SDS011;15243;50.726;7.080;2023-07-24T04:00:48;7.07;;;4.70;;
27899;SDS011;15243;50.726;7.080;2023-07-24T04:03:15;9.50;;;5.05;;
27899;SDS011;15243;50.726;7.080;2023-07-24T04:05:43;7.90;;;4.78;;
27899;SDS011;15243;50.726;7.080;2023-07-24T04:08:10;7.28;;;4.82;;
27899;SDS011;15243;50.726;7.080;2023-07-24T04:10:37;9.23;;;4.40;;
27899;SDS011;15243;50.726;7.080;2023-07-24T04:13:04;8.82;;;4.97;;
27899;SDS011;15243;50.726;7.080;2023-07-24T04:15:31;6.20;;;4.10;;
27899;SDS011;15243;50.726;7.080;2023-07-24T04:17:58;6.78;;;4.45;;
27899;SDS011;15243;50.726;7.080;2023-07-24T04:20:25;5.07;;;4.28;;
27899;SDS011;15243;50.726;7.080;2023-07-24T04:22:52;6.72;;;4.60;;
27899;SDS011;15243;50.726;7.080;2023-07-24T04:25:19;10.45;;;4.47;;
27899;SDS011;15243;50.726;7.080;2023-07-24T04:27:46;6.25;;;4.35;;
27899;SDS011;15243;50.726;7.080;2023-07-24T04:30:13;10.65;;;5.32;;
27899;SDS011;15243;50.726;7.080;2023-07-24T04:32:40;7.05;;;4.32;;
27899;SDS011;15243;50.726;7.080;2023-07-24T04:35:07;4.97;;;4.00;;
27899;SDS011;15243;50.726;7.080;2023-07-24T04:37:34;10.77;;;4.90;;
27899;SDS011;15243;50.726;7.080;2023-07-24T04:40:01;7.47;;;4.25;;
27899;SDS011;15243;50.726;7.080;2023-07-24T04:42:28;5.95;;;4.38;;
27899;SDS011;15243;50.726;7.080;2023-07-24T04:44:55;7.65;;;4.38;;
27899;SDS011;15243;50.726;7.080;2023-07-24T04:47:22;7.38;;;4.70;;
27899;SDS011;15243;50.726;7.080;2023-07-24T04:49:49;6.57;;;4.47;;
27899;SDS011;15243;50.726;7.080;2023-07-24T04:52:16;7.32;;;4.13;;
27899;SDS011;15243;50.726;7.080;2023-07-24T04:54:43;9.73;;;4.50;;
27899;SDS011;15243;50.726;7.080;2023-07-24T04:57:10;6.90;;;4.28;;
27899;SDS011;15243;50.726;7.080;2023-07-24T04:59:38;6.60;;;4.63;;
27899;SDS011;15243;50.726;7.080;2023-07-24T05:02:05;6.63;;;4.10;;
27899;SDS011;15243;50.726;7.080;2023-07-24T05:04:32;5.78;;;3.88;;
27899;SDS011;15243;50.726;7.080;2023-07-24T05:06:59;8.25;;;4.47;;
27899;SDS011;15243;50.726;7.080;2023-07-24T05:09:26;5.95;;;4.07;;
27899;SDS011;15243;50.726;7.080;2023-07-24T05:11:53;6.95;;;4.65;;
27899;SDS011;15243;50.726;7.080;2023-07-24T05:14:19;7.55;;;4.45;;
27899;SDS011;15243;50.726;7.080;2023-07-24T05:16:46;7.57;;;4.63;;
27899;SDS011;15243;50.726;7.080;2023-07-24T05:19:14;7.07;;;4.50;;
27899;SDS011;15243;50.726;7.080;2023-07-24T05:21:41;6.10;;;4.53;;
27899;SDS011;15243;50.726;7.080;2023-07-24T05:24:07;7.13;;;4.85;;
27899;SDS011;15243;50.726;7.080;2023-07-24T05:26:34;8.48;;;4.57;;
27899;SDS011;15243;50.726;7.080;2023-07-24T05:29:01;5.75;;;4.50;;
27899;SDS011;15243;50.726;7.080;2023-07-24T05:31:29;8.73;;;5.55;;
27899;SDS011;15243;50.726;7.080;2023-07-24T05:33:56;10.38;;;4.88;;
27899;SDS011;15243;50.726;7.080;2023-07-24T05:36:22;7.72;;;4.93;;
27899;SDS011;15243;50.726;7.080;2023-07-24T05:38:51;10.02;;;5.07;;
27899;SDS011;15243;50.726;7.080;2023-07-24T05:41:19;7.63;;;4.43;;
27899;SDS011;15243;50.726;7.080;2023-07-24T05:43:46;8.80;;;4.68;;
27899;SDS011;15243;50.726;7.080;2023-07-24T05:46:13;7.60;;;4.30;;
27899;SDS011;15243;50.726;7.080;2023-07-24T05:48:40;7.65;;;4.60;;
27899;SDS011;15243;50.726;7.080;2023-07-24T05:51:07;8.23;;;4.38;;
27899;SDS011;15243;50.726;7.080;2023-07-24T05:53:34;9.70;;;4.55;;
27899;SDS011;15243;50.726;7.080;2023-07-24T05:56:01;7.70;;;4.60;;
27899;SDS011;15243;50.726;7.080;2023-07-24T05:58:29;8.82;;;4.43;;
27899;SDS011;15243;50.726;7.080;2023-07-24T06:00:56;8.32;;;4.78;;
27899;SDS011;15243;50.726;7.080;2023-07-24T06:03:24;8.68;;;4.57;;
27899;SDS011;15243;50.726;7.080;2023-07-24T06:05:52;8.48;;;5.40;;
27899;SDS011;15243;50.726;7.080;2023-07-24T06:08:22;9.57;;;4.65;;
27899;SDS011;15243;50.726;7.080;2023-07-24T06:10:49;12.57;;;5.22;;
27899;SDS011;15243;50.726;7.080;2023-07-24T06:13:17;7.95;;;4.60;;
27899;SDS011;15243;50.726;7.080;2023-07-24T06:15:46;7.65;;;4.63;;
27899;SDS011;15243;50.726;7.080;2023-07-24T06:18:15;12.15;;;5.22;;
27899;SDS011;15243;50.726;7.080;2023-07-24T06:20:42;7.22;;;4.45;;
27899;SDS011;15243;50.726;7.080;2023-07-24T06:23:09;8.48;;;4.68;;
27899;SDS011;15243;50.726;7.080;2023-07-24T06:25:37;7.55;;;4.72;;
27899;SDS011;15243;50.726;7.080;2023-07-24T06:28:04;9.15;;;4.40;;
27899;SDS011;15243;50.726;7.080;2023-07-24T06:30:31;7.10;;;4.57;;
27899;SDS011;15243;50.726;7.080;2023-07-24T06:32:58;6.68;;;4.20;;
27899;SDS011;15243;50.726;7.080;2023-07-24T06:35:25;8.60;;;4.32;;
27899;SDS011;15243;50.726;7.080;2023-07-24T06:37:52;6.10;;;4.25;;
27899;SDS011;15243;50.726;7.080;2023-07-24T06:40:19;7.80;;;4.30;;
27899;SDS011;15243;50.726;7.080;2023-07-24T06:42:46;6.85;;;4.43;;
27899;SDS011;15243;50.726;7.080;2023-07-24T06:45:13;7.25;;;4.63;;
27899;SDS011;15243;50.726;7.080;2023-07-24T06:47:40;8.77;;;4.35;;
27899;SDS011;15243;50.726;7.080;2023-07-24T06:50:07;7.90;;;4.22;;
27899;SDS011;15243;50.726;7.080;2023-07-24T06:52:34;4.90;;;4.18;;
27899;SDS011;15243;50.726;7.080;2023-07-24T06:55:02;6.18;;;4.30;;
27899;SDS011;15243;50.726;7.080;2023-07-24T06:57:29;7.30;;;4.68;;
27899;SDS011;15243;50.726;7.080;2023-07-24T06:59:56;5.55;;;3.90;;
27899;SDS011;15243;50.726;7.080;2023-07-24T07:02:24;6.40;;;4.15;;
27899;SDS011;15243;50.726;7.080;2023-07-24T07:04:51;6.57;;;4.28;;
27899;SDS011;15243;50.726;7.080;2023-07-24T07:07:18;4.93;;;3.72;;
27899;SDS011;15243;50.726;7.080;2023-07-24T07:09:45;5.95;;;4.57;;
27899;SDS011;15243;50.726;7.080;2023-07-24T07:12:12;8.25;;;4.32;;
27899;SDS011;15243;50.726;7.080;2023-07-24T07:14:39;7.22;;;4.20;;
27899;SDS011;15243;50.726;7.080;2023-07-24T07:17:06;5.57;;;3.83;;
27899;SDS011;15243;50.726;7.080;2023-07-24T07:19:33;7.15;;;4.20;;
27899;SDS011;15243;50.726;7.080;2023-07-24T07:22:02;7.57;;;4.35;;
27899;SDS011;15243;50.726;7.080;2023-07-24T07:24:30;6.78;;;4.35;;
27899;SDS011;15243;50.726;7.080;2023-07-24T07:26:57;6.28;;;4.53;;
27899;SDS011;15243;50.726;7.080;2023-07-24T07:29:24;8.15;;;3.90;;
27899;SDS011;15243;50.726;7.080;2023-07-24T07:31:51;8.45;;;4.32;;
27899;SDS011;15243;50.726;7.080;2023-07-24T07:34:18;5.85;;;4.13;;
27899;SDS011;15243;50.726;7.080;2023-07-24T07:36:57;4.82;;;4.00;;
27899;SDS011;15243;50.726;7.080;2023-07-24T07:39:24;4.68;;;3.58;;
27899;SDS011;15243;50.726;7.080;2023-07-24T07:41:51;7.88;;;4.07;;
27899;SDS011;15243;50.726;7.080;2023-07-24T07:44:38;6.05;;;4.00;;
27899;SDS011;15243;50.726;7.080;2023-07-24T07:47:05;4.57;;;3.67;;
27899;SDS011;15243;50.726;7.080;2023-07-24T07:49:32;4.65;;;3.60;;
27899;SDS011;15243;50.726;7.080;2023-07-24T07:51:59;9.05;;;3.95;;
27899;SDS011;15243;50.726;7.080;2023-07-24T07:54:26;6.20;;;4.18;;
27899;SDS011;15243;50.726;7.080;2023-07-24T07:56:54;6.50;;;4.43;;
27899;SDS011;15243;50.726;7.080;2023-07-24T07:59:23;9.95;;;4.22;;
27899;SDS011;15243;50.726;7.080;2023-07-24T08:01:50;9.52;;;4.07;;
27899;SDS011;15243;50.726;7.080;2023-07-24T08:04:17;6.80;;;3.97;;
27899;SDS011;15243;50.726;7.080;2023-07-24T08:06:45;6.32;;;4.03;;
27899;SDS011;15243;50.726;7.080;2023-07-24T08:09:12;6.57;;;4.07;;
27899;SDS011;15243;50.726;7.080;2023-07-24T08:11:39;4.57;;;3.63;;
27899;SDS011;15243;50.726;7.080;2023-07-24T08:14:06;6.15;;;3.83;;
27899;SDS011;15243;50.726;7.080;2023-07-24T08:16:33;9.32;;;3.80;;
27899;SDS011;15243;50.726;7.080;2023-07-24T08:19:00;5.65;;;3.60;;
27899;SDS011;15243;50.726;7.080;2023-07-24T08:21:27;5.40;;;3.75;;
27899;SDS011;15243;50.726;7.080;2023-07-24T08:23:54;6.72;;;3.42;;
27899;SDS011;15243;50.726;7.080;2023-07-24T08:26:21;5.18;;;3.53;;
27899;SDS011;15243;50.726;7.080;2023-07-24T08:28:48;5.70;;;3.65;;
27899;SDS011;15243;50.726;7.080;2023-07-24T08:31:15;5.43;;;3.30;;
27899;SDS011;15243;50.726;7.080;2023-07-24T08:33:42;5.38;;;3.78;;
27899;SDS011;15243;50.726;7.080;2023-07-24T08:36:10;5.65;;;3.83;;
27899;SDS011;15243;50.726;7.080;2023-07-24T08:38:39;6.63;;;3.42;;
27899;SDS011;15243;50.726;7.080;2023-07-24T08:41:11;5.38;;;3.60;;
27899;SDS011;15243;50.726;7.080;2023-07-24T08:43:40;5.63;;;3.60;;
27899;SDS011;15243;50.726;7.080;2023-07-24T08:46:09;3.67;;;2.95;;
27899;SDS011;15243;50.726;7.080;2023-07-24T08:48:38;4.55;;;3.22;;
27899;SDS011;15243;50.726;7.080;2023-07-24T08:51:13;6.28;;;3.03;;
27899;SDS011;15243;50.726;7.080;2023-07-24T08:53:43;8.90;;;3.88;;
27899;SDS011;15243;50.726;7.080;2023-07-24T08:56:11;5.32;;;3.28;;
27899;SDS011;15243;50.726;7.080;2023-07-24T08:58:38;4.72;;;3.05;;
27899;SDS011;15243;50.726;7.080;2023-07-24T09:01:08;8.20;;;3.42;;
27899;SDS011;15243;50.726;7.080;2023-07-24T09:03:36;5.78;;;3.17;;
27899;SDS011;15243;50.726;7.080;2023-07-24T09:06:03;6.07;;;2.72;;
27899;SDS011;15243;50.726;7.080;2023-07-24T09:08:34;4.07;;;2.90;;
27899;SDS011;15243;50.726;7.080;2023-07-24T09:11:02;4.28;;;2.70;;
27899;SDS011;15243;50.726;7.080;2023-07-24T09:13:30;5.10;;;3.00;;
27899;SDS011;15243;50.726;7.080;2023-07-24T09:15:58;4.60;;;2.92;;
27899;SDS011;15243;50.726;7.080;2023-07-24T09:18:25;3.55;;;2.63;;
27899;SDS011;15243;50.726;7.080;2023-07-24T09:20:52;3.95;;;2.53;;
27899;SDS011;15243;50.726;7.080;2023-07-24T09:23:26;5.22;;;3.03;;
27899;SDS011;15243;50.726;7.080;2023-07-24T09:25:55;5.43;;;3.15;;
27899;SDS011;15243;50.726;7.080;2023-07-24T09:28:22;4.43;;;3.17;;
27899;SDS011;15243;50.726;7.080;2023-07-24T09:30:53;3.85;;;2.80;;
27899;SDS011;15243;50.726;7.080;2023-07-24T09:36:10;3.38;;;2.35;;
27899;SDS011;15243;50.726;7.080;2023-07-24T09:38:38;3.45;;;2.65;;
27899;SDS011;15243;50.726;7.080;2023-07-24T09:41:06;3.30;;;2.70;;
27899;SDS011;15243;50.726;7.080;2023-07-24T09:43:34;5.00;;;2.72;;
27899;SDS011;15243;50.726;7.080;2023-07-24T09:46:07;4.13;;;2.60;;
27899;SDS011;15243;50.726;7.080;2023-07-24T09:48:36;6.07;;;3.00;;
27899;SDS011;15243;50.726;7.080;2023-07-24T09:51:08;2.67;;;2.45;;
27899;SDS011;15243;50.726;7.080;2023-07-24T09:53:39;5.97;;;2.90;;
27899;SDS011;15243;50.726;7.080;2023-07-24T09:56:10;3.55;;;2.58;;
27899;SDS011;15243;50.726;7.080;2023-07-24T09:58:37;3.72;;;2.58;;
27899;SDS011;15243;50.726;7.080;2023-07-24T10:01:06;3.75;;;2.67;;
27899;SDS011;15243;50.726;7.080;2023-07-24T10:03:35;4.03;;;2.47;;
27899;SDS011;15243;50.726;7.080;2023-07-24T10:06:09;3.70;;;2.40;;
27899;SDS011;15243;50.726;7.080;2023-07-24T10:08:41;3.28;;;2.50;;
27899;SDS011;15243;50.726;7.080;2023-07-24T10:11:09;4.90;;;2.47;;
27899;SDS011;15243;50.726;7.080;2023-07-24T10:13:38;4.55;;;2.80;;
27899;SDS011;15243;50.726;7.080;2023-07-24T10:16:09;5.47;;;2.85;;
27899;SDS011;15243;50.726;7.080;2023-07-24T10:18:43;3.92;;;2.80;;
27899;SDS011;15243;50.726;7.080;2023-07-24T10:21:12;4.13;;;2.60;;
27899;SDS011;15243;50.726;7.080;2023-07-24T10:23:45;4.15;;;2.63;;
27899;SDS011;15243;50.726;7.080;2023-07-24T10:26:14;4.85;;;2.90;;
27899;SDS011;15243;50.726;7.080;2023-07-24T10:28:42;5.40;;;2.88;;
27899;SDS011;15243;50.726;7.080;2023-07-24T10:31:23;6.85;;;3.20;;
27899;SDS011;15243;50.726;7.080;2023-07-24T10:33:53;5.93;;;3.22;;
27899;SDS011;15243;50.726;7.080;2023-07-24T10:36:22;4.55;;;2.83;;
27899;SDS011;15243;50.726;7.080;2023-07-24T10:38:54;3.50;;;2.90;;
27899;SDS011;15243;50.726;7.080;2023-07-24T10:41:21;3.38;;;2.83;;
27899;SDS011;15243;50.726;7.080;2023-07-24T10:43:50;5.55;;;3.28;;
27899;SDS011;15243;50.726;7.080;2023-07-24T10:46:19;3.72;;;2.88;;
27899;SDS011;15243;50.726;7.080;2023-07-24T10:48:51;4.43;;;3.00;;
27899;SDS011;15243;50.726;7.080;2023-07-24T10:51:19;4.63;;;2.92;;
27899;SDS011;15243;50.726;7.080;2023-07-24T10:53:48;4.88;;;3.05;;
27899;SDS011;15243;50.726;7.080;2023-07-24T10:56:16;5.28;;;3.30;;
27899;SDS011;15243;50.726;7.080;2023-07-24T10:58:43;4.82;;;2.92;;
27899;SDS011;15243;50.726;7.080;2023-07-24T11:01:11;6.53;;;3.35;;
27899;SDS011;15243;50.726;7.080;2023-07-24T11:03:39;4.15;;;2.72;;
27899;SDS011;15243;50.726;7.080;2023-07-24T11:06:14;5.15;;;3.15;;
27899;SDS011;15243;50.726;7.080;2023-07-24T11:08:50;4.47;;;3.08;;
27899;SDS011;15243;50.726;7.080;2023-07-24T11:11:43;5.65;;;2.85;;
27899;SDS011;15243;50.726;7.080;2023-07-24T11:14:13;6.03;;;3.08;;
27899;SDS011;15243;50.726;7.080;2023-07-24T11:16:48;3.20;;;2.65;;
27899;SDS011;15243;50.726;7.080;2023-07-24T11:19:22;3.70;;;2.70;;
27899;SDS011;15243;50.726;7.080;2023-07-24T11:21:52;3.38;;;2.95;;
27899;SDS011;15243;50.726;7.080;2023-07-24T11:24:19;5.25;;;3.35;;
27899;SDS011;15243;50.726;7.080;2023-07-24T11:26:46;4.78;;;2.53;;
27899;SDS011;15243;50.726;7.080;2023-07-24T11:29:13;4.90;;;2.90;;
27899;SDS011;15243;50.726;7.080;2023-07-24T11:31:40;3.50;;;2.70;;
27899;SDS011;15243;50.726;7.080;2023-07-24T11:34:07;4.53;;;3.42;;
27899;SDS011;15243;50.726;7.080;2023-07-24T11:36:34;4.07;;;3.08;;
27899;SDS011;15243;50.726;7.080;2023-07-24T11:39:01;6.07;;;3.20;;
27899;SDS011;15243;50.726;7.080;2023-07-24T11:41:30;5.10;;;3.10;;
27899;SDS011;15243;50.726;7.080;2023-07-24T11:43:57;4.07;;;2.80;;
27899;SDS011;15243;50.726;7.080;2023-07-24T11:46:28;5.00;;;2.90;;
27899;SDS011;15243;50.726;7.080;2023-07-24T11:48:58;3.78;;;3.03;;
27899;SDS011;15243;50.726;7.080;2023-07-24T11:51:25;3.45;;;2.90;;
27899;SDS011;15243;50.726;7.080;2023-07-24T11:54:07;4.70;;;2.95;;
27899;SDS011;15243;50.726;7.080;2023-07-24T11:56:37;6.33;;;3.40;;
27899;SDS011;15243;50.726;7.080;2023-07-24T11:59:14;7.60;;;3.10;;
27899;SDS011;15243;50.726;7.080;2023-07-24T12:01:45;3.97;;;3.15;;
27899;SDS011;15243;50.726;7.080;2023-07-24T12:04:14;5.65;;;3.30;;
27899;SDS011;15243;50.726;7.080;2023-07-24T12:06:42;5.88;;;3.13;;
27899;SDS011;15243;50.726;7.080;2023-07-24T12:09:10;4.47;;;3.25;;
27899;SDS011;15243;50.726;7.080;2023-07-24T12:11:43;7.10;;;3.75;;
27899;SDS011;15243;50.726;7.080;2023-07-24T12:14:15;4.18;;;2.30;;
27899;SDS011;15243;50.726;7.080;2023-07-24T12:16:42;3.67;;;2.78;;
27899;SDS011;15243;50.726;7.080;2023-07-24T12:19:10;4.30;;;3.10;;
27899;SDS011;15243;50.726;7.080;2023-07-24T12:21:37;6.85;;;3.35;;
27899;SDS011;15243;50.726;7.080;2023-07-24T12:24:04;5.57;;;3.38;;
27899;SDS011;15243;50.726;7.080;2023-07-24T12:26:31;5.07;;;2.75;;
27899;SDS011;15243;50.726;7.080;2023-07-24T12:28:59;2.75;;;1.98;;
27899;SDS011;15243;50.726;7.080;2023-07-24T12:31:27;4.38;;;1.77;;
27899;SDS011;15243;50.726;7.080;2023-07-24T12:33:55;2.88;;;1.60;;
27899;SDS011;15243;50.726;7.080;2023-07-24T12:36:22;8.80;;;2.70;;
27899;SDS011;15243;50.726;7.080;2023-07-24T12:38:49;4.75;;;2.58;;
27899;SDS011;15243;50.726;7.080;2023-07-24T12:41:17;5.22;;;2.60;;
27899;SDS011;15243;50.726;7.080;2023-07-24T12:43:44;4.40;;;1.92;;
27899;SDS011;15243;50.726;7.080;2023-07-24T12:46:11;3.47;;;1.90;;
27899;SDS011;15243;50.726;7.080;2023-07-24T12:48:38;3.95;;;1.70;;
27899;SDS011;15243;50.726;7.080;2023-07-24T12:51:05;5.47;;;1.77;;
27899;SDS011;15243;50.726;7.080;2023-07-24T12:53:32;4.15;;;1.65;;
27899;SDS011;15243;50.726;7.080;2023-07-24T12:56:06;2.13;;;1.73;;
27899;SDS011;15243;50.726;7.080;2023-07-24T12:58:33;3.88;;;1.52;;
27899;SDS011;15243;50.726;7.080;2023-07-24T13:01:00;2.13;;;1.60;;
27899;SDS011;15243;50.726;7.080;2023-07-24T13:03:27;1.17;;;1.08;;
27899;SDS011;15243;50.726;7.080;2023-07-24T13:05:55;2.25;;;1.42;;
27899;SDS011;15243;50.726;7.080;2023-07-24T13:08:22;2.65;;;0.85;;
27899;SDS011;15243;50.726;7.080;2023-07-24T13:10:49;2.08;;;1.10;;
27899;SDS011;15243;50.726;7.080;2023-07-24T13:13:16;1.40;;;1.10;;
27899;SDS011;15243;50.726;7.080;2023-07-24T13:15:43;2.45;;;1.35;;
27899;SDS011;15243;50.726;7.080;2023-07-24T13:18:10;2.10;;;1.65;;
27899;SDS011;15243;50.726;7.080;2023-07-24T13:23:10;2.55;;;1.30;;
27899;SDS011;15243;50.726;7.080;2023-07-24T13:25:37;4.07;;;1.30;;
27899;SDS011;15243;50.726;7.080;2023-07-24T13:28:03;3.40;;;0.90;;
27899;SDS011;15243;50.726;7.080;2023-07-24T13:30:30;2.90;;;1.00;;
27899;SDS011;15243;50.726;7.080;2023-07-24T13:32:57;1.25;;;0.80;;
27899;SDS011;15243;50.726;7.080;2023-07-24T13:35:24;3.08;;;1.02;;
27899;SDS011;15243;50.726;7.080;2023-07-24T13:37:52;3.83;;;0.80;;
27899;SDS011;15243;50.726;7.080;2023-07-24T13:40:18;3.33;;;0.80;;
27899;SDS011;15243;50.726;7.080;2023-07-24T13:42:45;1.25;;;0.95;;
27899;SDS011;15243;50.726;7.080;2023-07-24T13:45:13;1.33;;;0.77;;
27899;SDS011;15243;50.726;7.080;2023-07-24T13:47:39;4.07;;;1.10;;
27899;SDS011;15243;50.726;7.080;2023-07-24T13:50:06;2.55;;;1.10;;
27899;SDS011;15243;50.726;7.080;2023-07-24T13:52:34;5.90;;;1.95;;
27899;SDS011;15243;50.726;7.080;2023-07-24T13:55:01;4.93;;;1.63;;
27899;SDS011;15243;50.726;7.080;2023-07-24T13:57:28;3.42;;;2.15;;
27899;SDS011;15243;50.726;7.080;2023-07-24T13:59:55;2.67;;;1.58;;
27899;SDS011;15243;50.726;7.080;2023-07-24T14:02:22;2.60;;;1.60;;
27899;SDS011;15243;50.726;7.080;2023-07-24T14:04:49;2.60;;;1.70;;
27899;SDS011;15243;50.726;7.080;2023-07-24T14:07:16;4.20;;;1.60;;
27899;SDS011;15243;50.726;7.080;2023-07-24T14:09:43;4.80;;;1.88;;
27899;SDS011;15243;50.726;7.080;2023-07-24T14:12:10;2.35;;;1.60;;
27899;SDS011;15243;50.726;7.080;2023-07-24T14:14:37;3.50;;;1.77;;
27899;SDS011;15243;50.726;7.080;2023-07-24T14:17:04;4.80;;;1.50;;
27899;SDS011;15243;50.726;7.080;2023-07-24T14:19:31;9.25;;;1.60;;
27899;SDS011;15243;50.726;7.080;2023-07-24T14:21:58;2.17;;;1.13;;
27899;SDS011;15243;50.726;7.080;2023-07-24T14:24:25;1.65;;;0.80;;
27899;SDS011;15243;50.726;7.080;2023-07-24T14:26:52;2.88;;;1.25;;
27899;SDS011;15243;50.726;7.080;2023-07-24T14:29:19;1.52;;;1.05;;
27899;SDS011;15243;50.726;7.080;2023-07-24T14:31:45;2.58;;;1.00;;
27899;SDS011;15243;50.726;7.080;2023-07-24T14:34:13;3.85;;;1.20;;
27899;SDS011;15243;50.726;7.080;2023-07-24T14:36:40;3.33;;;1.27;;
27899;SDS011;15243;50.726;7.080;2023-07-24T14:39:06;3.35;;;1.20;;
27899;SDS011;15243;50.726;7.080;2023-07-24T14:41:34;2.13;;;1.20;;
27899;SDS011;15243;50.726;7.080;2023-07-24T14:44:01;4.10;;;0.90;;
27899;SDS011;15243;50.726;7.080;2023-07-24T14:46:28;1.35;;;1.10;;
27899;SDS011;15243;50.726;7.080;2023-07-24T14:48:55;1.52;;;1.00;;
27899;SDS011;15243;50.726;7.080;2023-07-24T14:51:23;2.08;;;1.08;;
27899;SDS011;15243;50.726;7.080;2023-07-24T14:53:51;1.70;;;1.00;;
27899;SDS011;15243;50.726;7.080;2023-07-24T14:56:19;2.75;;;1.42;;
27899;SDS011;15243;50.726;7.080;2023-07-24T14:58:47;1.95;;;1.00;;
27899;SDS011;15243;50.726;7.080;2023-07-24T15:01:14;1.05;;;0.80;;
27899;SDS011;15243;50.726;7.080;2023-07-24T15:03:42;0.80;;;0.80;;